createdAt,value
2022-10-12T00:02:13.592Z,30
2022-10-12T00:12:17.756Z,32
2022-10-12T00:22:24.110Z,30
2022-10-12T00:32:28.586Z,31
2022-10-12T00:42:33.931Z,33
2022-10-12T00:52:41.995Z,31
2022-10-12T01:02:45.782Z,29
2022-10-12T01:12:53.644Z,31
2022-10-12T01:22:59.070Z,28
2022-10-12T01:33:04.000Z,30
2022-10-12T01:43:11.782Z,35
2022-10-12T01:53:17.853Z,35
2022-10-12T02:03:23.330Z,36
2022-10-12T02:13:29.712Z,38
2022-10-12T02:23:34.107Z,38
2022-10-12T02:33:38.823Z,39
2022-10-12T02:43:57.239Z,40
2022-10-12T02:53:49.724Z,40
2022-10-12T03:03:56.066Z,38
2022-10-12T03:14:00.593Z,33
2022-10-12T03:24:07.478Z,38
2022-10-12T03:34:12.646Z,37
2022-10-12T03:44:17.627Z,37
2022-10-12T03:54:30.935Z,36
2022-10-12T04:04:29.263Z,34
2022-10-12T04:14:36.877Z,36
2022-10-12T04:24:42.515Z,41
2022-10-12T04:34:48.925Z,39
2022-10-12T04:45:00.062Z,33
2022-10-12T04:54:59.795Z,40
2022-10-12T05:05:06.085Z,41
2022-10-12T05:15:17.245Z,33
2022-10-12T05:25:20.758Z,37
2022-10-12T05:35:22.636Z,34
2022-10-12T05:45:28.709Z,34
2022-10-12T05:55:35.059Z,36
2022-10-12T06:05:40.915Z,34
2022-10-12T06:15:46.194Z,38
2022-10-12T06:25:54.219Z,32
2022-10-12T06:35:58.305Z,34
2022-10-12T06:46:04.939Z,36
2022-10-12T06:56:10.675Z,33
2022-10-12T07:06:17.827Z,35
2022-10-12T07:16:21.846Z,39
2022-10-12T07:26:27.516Z,34
2022-10-12T07:37:30.341Z,30
2022-10-12T07:47:23.546Z,32
2022-10-12T07:57:29.539Z,28
2022-10-12T08:07:34.686Z,30
2022-10-12T08:17:41.285Z,26
2022-10-12T08:27:48.304Z,26
2022-10-12T08:37:50.831Z,29
2022-10-12T08:47:57.119Z,30
2022-10-12T08:58:02.907Z,27
2022-10-12T09:08:07.984Z,27
2022-10-12T09:18:12.889Z,25
2022-10-12T09:28:21.343Z,25
2022-10-12T09:38:22.617Z,24
2022-10-12T09:48:26.893Z,24
2022-10-12T09:58:32.896Z,27
2022-10-12T10:08:39.231Z,23
2022-10-12T10:18:47.405Z,22
2022-10-12T10:28:52.949Z,21
2022-10-12T10:38:57.739Z,14
2022-10-12T10:49:03.514Z,21
2022-10-12T10:59:09.677Z,21
2022-10-12T11:09:16.259Z,16
2022-10-12T11:19:21.641Z,16
2022-10-12T11:29:28.389Z,16
2022-10-12T11:39:37.745Z,14
2022-10-12T11:50:20.601Z,14
2022-10-12T12:00:26.802Z,14
2022-10-12T12:10:37.791Z,12
2022-10-12T12:20:39.691Z,13
2022-10-12T12:30:45.391Z,16
2022-10-12T12:40:49.862Z,15
2022-10-12T12:50:54.538Z,16
2022-10-12T13:01:08.856Z,14
2022-10-12T13:11:07.907Z,35
2022-10-12T13:21:47.062Z,16
2022-10-12T13:31:52.073Z,14
2022-10-12T13:41:58.083Z,12
2022-10-12T13:52:05.057Z,15
2022-10-12T14:02:10.427Z,16
2022-10-12T14:12:17.192Z,15
2022-10-12T14:22:24.652Z,13
2022-10-12T14:32:29.244Z,16
2022-10-12T14:42:35.894Z,14
2022-10-12T14:52:42.901Z,12
2022-10-12T15:02:49.198Z,11
2022-10-12T15:12:55.040Z,12
2022-10-12T15:23:01.807Z,10
2022-10-12T15:33:09.618Z,11
2022-10-12T15:53:22.235Z,13
2022-10-12T16:03:28.431Z,30
2022-10-12T16:13:35.184Z,18
2022-10-12T16:23:41.387Z,12
2022-10-12T16:33:47.419Z,12
2022-10-12T16:43:53.408Z,24
2022-10-12T16:53:57.871Z,12
2022-10-12T17:04:02.665Z,22
2022-10-12T17:14:09.016Z,14
2022-10-12T17:24:14.825Z,13
2022-10-12T17:34:21.185Z,25
2022-10-12T17:44:27.290Z,17
2022-10-12T17:54:32.409Z,12
2022-10-12T18:04:38.277Z,14
2022-10-12T18:14:44.374Z,26
2022-10-12T18:24:57.895Z,22
2022-10-12T18:34:56.607Z,20
2022-10-12T18:45:02.539Z,19
2022-10-12T18:55:09.904Z,16
2022-10-12T19:05:17.176Z,15
2022-10-12T19:15:22.333Z,19
2022-10-12T19:25:28.153Z,17
2022-10-12T19:35:31.859Z,21
2022-10-12T19:45:36.188Z,22
2022-10-12T19:55:43.302Z,23
2022-10-12T20:05:49.791Z,28
2022-10-12T20:15:56.010Z,28
2022-10-12T20:26:02.103Z,30
2022-10-12T20:36:07.192Z,25
2022-10-12T20:46:13.023Z,23
2022-10-12T20:56:15.987Z,22
2022-10-12T21:06:20.110Z,27
2022-10-12T21:16:25.385Z,23
2022-10-12T21:26:32.800Z,21
2022-10-12T21:36:39.492Z,19
2022-10-12T21:46:45.431Z,20
2022-10-12T21:56:51.822Z,27
2022-10-12T22:07:00.513Z,33
2022-10-12T22:17:02.027Z,39
2022-10-12T22:27:07.906Z,21
2022-10-12T22:37:13.483Z,15
2022-10-12T22:47:19.490Z,13
2022-10-12T22:57:27.283Z,11
2022-10-12T23:07:34.262Z,17
2022-10-12T23:17:40.636Z,17
2022-10-12T23:27:44.937Z,19
2022-10-12T23:37:48.464Z,17
2022-10-12T23:47:54.155Z,13
2022-10-12T23:58:31.592Z,14
